Time;durP1;ratioP1;P1;durP2;ratioP2;P2;SDS_P1;SDS_P2;PMS_P1;PMS_P2;Temp;Humidity;BMP_temperature;BMP_pressure;BME280_temperature;BME280_humidity;BME280_pressure;Samples;Min_cycle;Max_cycle;Signal;HPM_P1;HPM_P2
2021/05/03 00:01:14;;;;;;;1.60;1.05;;;20.20;42.20;;;;;;5035388;28;20032;-56
2021/05/03 00:03:40;;;;;;;1.88;1.33;;;20.10;42.10;;;;;;5035229;28;20399;-53
2021/05/03 00:06:05;;;;;;;1.52;1.05;;;20.20;42.20;;;;;;5035641;28;20083;-56
2021/05/03 00:08:31;;;;;;;1.55;1.30;;;20.20;42.20;;;;;;5035802;28;20037;-54
2021/05/03 00:10:56;;;;;;;2.08;1.20;;;20.10;42.10;;;;;;5035655;28;20037;-54
2021/05/03 00:13:22;;;;;;;1.48;1.25;;;20.10;42.10;;;;;;5035570;28;20021;-55
2021/05/03 00:15:48;;;;;;;1.00;1.00;;;20.10;42.10;;;;;;5035435;28;20349;-52
2021/05/03 00:18:13;;;;;;;1.83;1.23;;;20.10;42.10;;;;;;5035149;28;20022;-51
2021/05/03 00:20:39;;;;;;;1.95;1.17;;;20.10;42.10;;;;;;5035572;28;20045;-52
2021/05/03 00:23:05;;;;;;;2.35;1.27;;;20.10;42.30;;;;;;5035404;28;20029;-55
2021/05/03 00:25:30;;;;;;;1.05;0.93;;;20.10;42.10;;;;;;5035275;28;20045;-54
2021/05/03 00:27:56;;;;;;;1.40;1.25;;;20.10;42.10;;;;;;5034188;28;20467;-55
2021/05/03 00:30:22;;;;;;;1.92;1.08;;;20.10;42.00;;;;;;5034984;28;20029;-53
2021/05/03 00:32:48;;;;;;;1.48;1.00;;;20.10;42.00;;;;;;5017628;28;20136;-55
2021/05/03 00:35:15;;;;;;;1.42;1.33;;;20.10;42.00;;;;;;5035789;28;20029;-57
2021/05/03 00:37:42;;;;;;;2.00;1.20;;;20.10;42.00;;;;;;5035031;28;20021;-49
2021/05/03 00:40:08;;;;;;;2.15;1.10;;;20.10;42.00;;;;;;5034666;28;20022;-51
2021/05/03 00:42:35;;;;;;;1.58;1.00;;;20.10;42.00;;;;;;5035131;28;20048;-53
2021/05/03 00:45:19;;;;;;;2.00;1.08;;;20.00;41.90;;;;;;5034787;28;20022;-50
2021/05/03 00:47:45;;;;;;;1.77;0.95;;;20.10;42.00;;;;;;5035260;28;20029;-56
2021/05/03 00:50:13;;;;;;;1.30;1.15;;;20.00;41.90;;;;;;5034911;28;20022;-54
2021/05/03 00:52:41;;;;;;;1.25;1.00;;;20.00;41.90;;;;;;5034804;28;20053;-53
2021/05/03 00:55:07;;;;;;;1.95;1.10;;;20.00;41.90;;;;;;5034851;28;20036;-53
2021/05/03 00:57:33;;;;;;;2.17;1.08;;;20.00;41.90;;;;;;5034363;28;20112;-55
2021/05/03 00:59:59;;;;;;;1.27;1.17;;;20.00;41.90;;;;;;5034794;28;20472;-57
2021/05/03 01:02:24;;;;;;;0.85;0.82;;;20.00;41.90;;;;;;5034733;28;20029;-54
2021/05/03 01:04:50;;;;;;;1.55;1.02;;;19.90;41.80;;;;;;5034424;28;20022;-54
2021/05/03 01:07:16;;;;;;;1.40;1.00;;;19.90;41.80;;;;;;5034579;28;20033;-55
2021/05/03 01:09:41;;;;;;;1.08;0.98;;;19.90;41.80;;;;;;5034823;28;20029;-52
2021/05/03 01:12:08;;;;;;;1.73;0.90;;;19.90;41.80;;;;;;5034754;28;20041;-56
2021/05/03 01:14:34;;;;;;;1.52;0.95;;;19.90;41.80;;;;;;5034936;28;20049;-56
2021/05/03 01:16:59;;;;;;;1.17;0.73;;;19.90;41.80;;;;;;5034451;28;20026;-54
2021/05/03 01:19:25;;;;;;;1.17;0.90;;;19.90;41.80;;;;;;5034914;28;20026;-54
2021/05/03 01:21:51;;;;;;;1.17;1.02;;;19.90;41.80;;;;;;5034385;28;20033;-54
2021/05/03 01:24:18;;;;;;;1.25;0.80;;;19.90;41.80;;;;;;5034887;28;20029;-54
2021/05/03 01:26:45;;;;;;;0.80;0.80;;;19.90;41.70;;;;;;5034355;28;20403;-56
2021/05/03 01:29:11;;;;;;;1.15;1.05;;;19.90;41.70;;;;;;5034485;28;20025;-56
2021/05/03 01:31:37;;;;;;;1.05;0.80;;;19.90;41.80;;;;;;5034503;28;20498;-52
2021/05/03 01:34:04;;;;;;;2.85;1.00;;;19.90;41.80;;;;;;5034726;28;20050;-57
2021/05/03 01:36:30;;;;;;;1.88;0.88;;;19.90;41.70;;;;;;5034570;28;20033;-52
2021/05/03 01:38:56;;;;;;;1.23;1.10;;;19.80;41.60;;;;;;5036103;28;20025;-55
2021/05/03 01:41:21;;;;;;;3.28;1.00;;;19.90;41.70;;;;;;5038277;28;20040;-58
2021/05/03 01:43:47;;;;;;;0.85;0.73;;;19.80;41.60;;;;;;5038705;28;20029;-51
2021/05/03 01:46:13;;;;;;;0.85;0.70;;;19.80;41.60;;;;;;5037896;28;20018;-55
2021/05/03 01:48:39;;;;;;;1.52;0.90;;;19.80;41.60;;;;;;5038458;28;20053;-52
2021/05/03 01:51:06;;;;;;;1.30;1.02;;;19.80;41.60;;;;;;5038416;28;20029;-52
2021/05/03 01:53:32;;;;;;;0.98;0.80;;;19.80;41.60;;;;;;5038055;28;20348;-54
2021/05/03 01:55:58;;;;;;;0.80;0.80;;;19.80;41.50;;;;;;5038344;28;20034;-52
2021/05/03 01:58:25;;;;;;;1.05;0.90;;;19.80;41.50;;;;;;5038047;28;20029;-55
2021/05/03 02:00:51;;;;;;;0.98;0.90;;;19.80;41.50;;;;;;5038102;28;20416;-53
2021/05/03 02:03:22;;;;;;;1.65;0.90;;;19.80;41.50;;;;;;5038292;28;20029;-56
2021/05/03 02:05:49;;;;;;;1.48;1.17;;;19.80;41.50;;;;;;5037498;28;20502;-54
2021/05/03 02:08:15;;;;;;;3.08;1.00;;;19.80;41.50;;;;;;5037898;28;20028;-56
2021/05/03 02:10:42;;;;;;;1.65;1.02;;;19.80;41.40;;;;;;5037906;28;20349;-55
2021/05/03 02:13:08;;;;;;;1.38;0.90;;;19.80;41.40;;;;;;5037616;28;20357;-54
2021/05/03 02:15:34;;;;;;;1.73;0.60;;;19.70;41.40;;;;;;5038013;28;20040;-57
2021/05/03 02:18:00;;;;;;;0.95;0.85;;;19.70;41.30;;;;;;5037602;28;20026;-53
2021/05/03 02:20:26;;;;;;;1.23;0.80;;;19.70;41.30;;;;;;5037486;28;20108;-54
2021/05/03 02:22:52;;;;;;;1.38;1.00;;;19.70;41.30;;;;;;5037266;28;20030;-53
2021/05/03 02:25:18;;;;;;;1.10;0.90;;;19.70;41.30;;;;;;5037583;28;20032;-54
2021/05/03 02:27:44;;;;;;;1.10;0.70;;;19.70;41.30;;;;;;5037389;28;20025;-50
2021/05/03 02:30:11;;;;;;;1.00;0.85;;;19.70;41.30;;;;;;5037455;28;20021;-55
2021/05/03 02:32:37;;;;;;;2.75;0.80;;;19.70;41.30;;;;;;5037329;28;20060;-53
2021/05/03 02:35:09;;;;;;;0.90;0.80;;;19.70;41.20;;;;;;5037295;28;20036;-56
2021/05/03 02:37:34;;;;;;;0.98;0.70;;;19.70;41.20;;;;;;5037351;28;20021;-55
2021/05/03 02:40:00;;;;;;;0.90;0.80;;;19.70;41.20;;;;;;5037147;28;20436;-56
2021/05/03 02:42:26;;;;;;;0.85;0.70;;;19.60;41.20;;;;;;5037473;28;20037;-54
2021/05/03 02:44:51;;;;;;;1.25;0.80;;;19.60;41.20;;;;;;5037515;28;20041;-53
2021/05/03 02:47:17;;;;;;;0.90;0.70;;;19.60;41.20;;;;;;5037571;28;20324;-56
2021/05/03 02:49:43;;;;;;;1.20;0.68;;;19.60;41.20;;;;;;5036075;28;20032;-56
2021/05/03 02:52:09;;;;;;;1.10;0.70;;;19.60;41.10;;;;;;5036954;28;20123;-54
2021/05/03 02:54:34;;;;;;;0.80;0.70;;;19.60;41.10;;;;;;5036915;28;20432;-56
2021/05/03 02:57:00;;;;;;;1.10;1.00;;;19.60;41.10;;;;;;5037208;28;20344;-54
2021/05/03 02:59:26;;;;;;;1.23;0.88;;;19.60;41.10;;;;;;5036981;28;20025;-56
2021/05/03 03:01:51;;;;;;;0.85;0.75;;;19.60;41.10;;;;;;5036426;28;20052;-53
2021/05/03 03:04:17;;;;;;;0.75;0.60;;;19.60;41.00;;;;;;5019193;28;20029;-57
2021/05/03 03:06:43;;;;;;;0.93;0.77;;;19.60;41.10;;;;;;5036798;28;20030;-57
2021/05/03 03:09:09;;;;;;;0.70;0.60;;;19.60;41.00;;;;;;5036667;28;20025;-54
2021/05/03 03:11:35;;;;;;;0.80;0.80;;;19.50;41.00;;;;;;5036716;28;20032;-54
2021/05/03 03:14:02;;;;;;;0.80;0.70;;;19.50;41.00;;;;;;5036856;28;20017;-57
2021/05/03 03:16:27;;;;;;;0.63;0.63;;;19.50;40.90;;;;;;5036520;28;20022;-56
2021/05/03 03:18:55;;;;;;;0.60;0.60;;;19.50;40.90;;;;;;5036674;28;20321;-53
2021/05/03 03:21:22;;;;;;;0.68;0.60;;;19.50;40.90;;;;;;5036496;28;20475;-54
2021/05/03 03:23:48;;;;;;;0.68;0.57;;;19.50;40.90;;;;;;5036669;28;20021;-51
2021/05/03 03:26:13;;;;;;;1.33;0.80;;;19.50;40.90;;;;;;5036261;28;20028;-56
2021/05/03 03:28:39;;;;;;;0.88;0.85;;;19.50;40.90;;;;;;5036552;28;20088;-55
2021/05/03 03:31:05;;;;;;;0.70;0.70;;;19.50;40.90;;;;;;5036265;28;20041;-51
2021/05/03 03:33:30;;;;;;;0.65;0.65;;;19.40;40.80;;;;;;5036343;28;20106;-54
2021/05/03 03:35:56;;;;;;;0.68;0.68;;;19.50;40.90;;;;;;5036322;28;20017;-53
2021/05/03 03:38:22;;;;;;;1.95;0.85;;;19.50;40.90;;;;;;5035819;28;20029;-51
2021/05/03 03:40:47;;;;;;;0.65;0.65;;;19.50;40.80;;;;;;5035689;28;20029;-56
2021/05/03 03:43:13;;;;;;;1.40;0.90;;;19.50;40.80;;;;;;5036313;28;20499;-56
2021/05/03 03:45:39;;;;;;;0.73;0.57;;;19.40;40.80;;;;;;5036213;28;20049;-55
2021/05/03 03:48:06;;;;;;;0.80;0.80;;;19.40;40.80;;;;;;5036070;28;20352;-51
2021/05/03 03:50:33;;;;;;;0.40;0.40;;;19.40;40.80;;;;;;5035732;28;20091;-56
2021/05/03 03:52:59;;;;;;;0.90;0.70;;;19.40;40.80;;;;;;5035520;28;20464;-57
2021/05/03 03:55:25;;;;;;;0.68;0.63;;;19.40;40.70;;;;;;5036091;28;20022;-53
2021/05/03 03:57:51;;;;;;;1.08;0.77;;;19.40;40.70;;;;;;5035774;28;20083;-56
2021/05/03 04:00:17;;;;;;;1.17;0.70;;;19.40;40.70;;;;;;5036266;28;20417;-56
2021/05/03 04:02:45;;;;;;;0.90;0.77;;;19.40;40.70;;;;;;5035325;28;20041;-55
2021/05/03 04:08:06;;;;;;;0.60;0.60;;;19.30;40.70;;;;;;5035715;28;20039;-52
2021/05/03 04:13:40;;;;;;;1.05;0.80;;;19.30;40.70;;;;;;5035247;28;20022;-54
2021/05/03 04:24:25;;;;;;;0.80;0.80;;;19.30;40.70;;;;;;5035352;28;19909;-51
2021/05/03 04:26:51;;;;;;;0.70;0.70;;;19.30;40.80;;;;;;5035508;28;20021;-52
2021/05/03 04:29:16;;;;;;;0.90;0.80;;;19.20;40.70;;;;;;5034900;28;20026;-56
2021/05/03 04:31:42;;;;;;;1.40;0.65;;;19.20;41.40;;;;;;5035185;28;20030;-54
2021/05/03 04:34:07;;;;;;;0.93;0.68;;;19.30;40.80;;;;;;5034810;28;20131;-51
2021/05/03 04:36:33;;;;;;;1.95;0.90;;;19.30;40.80;;;;;;5035201;28;20025;-56
2021/05/03 04:38:58;;;;;;;2.67;0.70;;;19.20;40.90;;;;;;5035671;28;20026;-53
2021/05/03 04:41:24;;;;;;;1.25;0.85;;;19.20;41.00;;;;;;5034860;28;20037;-53
2021/05/03 04:43:50;;;;;;;5.00;1.10;;;19.20;41.00;;;;;;5018031;28;20037;-54
2021/05/03 04:46:18;;;;;;;2.13;0.80;;;19.30;40.90;;;;;;5034648;28;20029;-53
2021/05/03 04:48:44;;;;;;;2.63;0.73;;;19.20;40.90;;;;;;5034920;28;20436;-55
2021/05/03 04:51:10;;;;;;;4.53;0.70;;;19.30;41.00;;;;;;5034750;28;20026;-56
2021/05/03 04:53:35;;;;;;;2.72;0.70;;;19.30;41.00;;;;;;5034938;28;20112;-53
2021/05/03 04:56:03;;;;;;;0.90;0.70;;;19.30;41.00;;;;;;5035103;28;20041;-55
2021/05/03 04:58:29;;;;;;;1.02;0.70;;;19.30;41.00;;;;;;5035044;28;20029;-53
2021/05/03 05:00:55;;;;;;;0.50;0.40;;;19.40;41.40;;;;;;5034619;28;20494;-55
2021/05/03 05:03:20;;;;;;;0.32;0.32;;;19.40;41.10;;;;;;5034496;28;20033;-55
2021/05/03 05:05:49;;;;;;;1.15;0.60;;;19.50;41.20;;;;;;5034701;28;20151;-54
2021/05/03 05:08:15;;;;;;;0.50;0.50;;;19.50;41.20;;;;;;5034606;28;20529;-54
2021/05/03 05:10:41;;;;;;;0.70;0.50;;;19.50;41.20;;;;;;5034228;28;20475;-51
2021/05/03 05:13:06;;;;;;;1.55;0.43;;;19.50;41.20;;;;;;5035329;28;20026;-53
2021/05/03 05:15:32;;;;;;;1.02;0.60;;;19.60;41.30;;;;;;5038773;28;20026;-57
2021/05/03 05:17:58;;;;;;;1.02;0.40;;;19.50;41.30;;;;;;5038711;28;20017;-54
2021/05/03 05:20:23;;;;;;;0.50;0.50;;;19.60;41.30;;;;;;5038425;28;20033;-55
2021/05/03 05:22:49;;;;;;;1.38;0.60;;;19.60;41.30;;;;;;5038272;28;20411;-58
2021/05/03 05:25:16;;;;;;;1.65;0.70;;;19.60;41.40;;;;;;5038773;28;20100;-54
2021/05/03 05:27:41;;;;;;;1.45;0.80;;;19.60;41.40;;;;;;5038518;28;20021;-49
2021/05/03 05:30:07;;;;;;;0.38;0.38;;;19.60;41.50;;;;;;5038552;28;20033;-54
2021/05/03 05:32:33;;;;;;;0.50;0.50;;;19.70;41.50;;;;;;5038798;28;20080;-49
2021/05/03 05:34:59;;;;;;;0.95;0.55;;;19.70;41.50;;;;;;5021031;28;20021;-52
2021/05/03 05:37:24;;;;;;;0.52;0.40;;;19.70;41.50;;;;;;5038372;28;20028;-51
2021/05/03 05:39:50;;;;;;;2.22;0.40;;;19.70;41.50;;;;;;5038676;28;20532;-56
2021/05/03 05:42:17;;;;;;;0.93;0.60;;;19.70;41.50;;;;;;5038692;28;20033;-52
2021/05/03 05:44:42;;;;;;;0.52;0.52;;;19.80;41.50;;;;;;5037995;28;20032;-50
2021/05/03 05:47:08;;;;;;;0.82;0.30;;;19.80;41.50;;;;;;5038316;28;20418;-57
2021/05/03 05:49:33;;;;;;;1.05;0.40;;;19.80;41.50;;;;;;5038570;28;20500;-52
2021/05/03 05:51:59;;;;;;;1.25;0.40;;;19.80;41.50;;;;;;5038140;28;20356;-51
2021/05/03 05:54:25;;;;;;;0.85;0.55;;;19.80;41.50;;;;;;5038290;28;20416;-51
2021/05/03 05:56:51;;;;;;;1.05;0.60;;;19.80;41.40;;;;;;5038182;28;20017;-49
2021/05/03 05:59:17;;;;;;;3.08;0.88;;;19.80;41.50;;;;;;5038015;28;20022;-52
2021/05/03 06:01:44;;;;;;;0.50;0.45;;;19.90;41.60;;;;;;5037587;28;20526;-50
2021/05/03 06:04:10;;;;;;;0.60;0.60;;;19.90;41.60;;;;;;5037935;28;20111;-47
2021/05/03 06:06:35;;;;;;;2.08;0.52;;;19.90;41.70;;;;;;5020814;28;20083;-49
2021/05/03 06:09:01;;;;;;;1.25;0.60;;;19.90;41.80;;;;;;5038001;28;20035;-49
2021/05/03 06:11:27;;;;;;;0.63;0.52;;;19.90;42.00;;;;;;5037500;28;20021;-49
2021/05/03 06:13:52;;;;;;;0.90;0.55;;;19.90;42.00;;;;;;5037662;28;20013;-55
2021/05/03 06:16:18;;;;;;;0.50;0.50;;;19.90;42.00;;;;;;5037164;28;20025;-48
2021/05/03 06:18:43;;;;;;;2.25;0.52;;;20.00;42.10;;;;;;5037645;28;20041;-50
2021/05/03 06:21:09;;;;;;;1.38;0.50;;;20.00;42.20;;;;;;5037289;28;20055;-53
2021/05/03 06:23:34;;;;;;;1.90;0.57;;;20.00;42.20;;;;;;5038264;28;20432;-48
2021/05/03 06:26:00;;;;;;;1.27;0.65;;;20.00;42.30;;;;;;5037668;28;20037;-50
2021/05/03 06:28:25;;;;;;;1.50;0.57;;;20.00;42.30;;;;;;5037344;28;20032;-52
2021/05/03 06:30:56;;;;;;;0.70;0.35;;;20.00;42.30;;;;;;5037226;28;20029;-52
2021/05/03 06:33:22;;;;;;;1.20;0.77;;;20.10;42.30;;;;;;5037012;28;20060;-55
2021/05/03 06:35:48;;;;;;;2.13;0.45;;;20.10;42.30;;;;;;5036868;28;20029;-54
2021/05/03 06:38:14;;;;;;;0.35;0.32;;;20.10;42.30;;;;;;5037545;28;20053;-49
2021/05/03 06:40:40;;;;;;;2.03;0.73;;;20.10;42.30;;;;;;5036568;28;20031;-50
2021/05/03 06:43:06;;;;;;;1.58;0.60;;;20.10;42.30;;;;;;5036741;28;20045;-53
2021/05/03 06:45:33;;;;;;;1.17;0.60;;;20.10;42.40;;;;;;5037341;28;20033;-50
2021/05/03 06:47:59;;;;;;;1.52;0.60;;;20.10;42.30;;;;;;5036345;28;20103;-55
2021/05/03 06:50:25;;;;;;;1.13;0.68;;;20.10;42.40;;;;;;5037185;28;20033;-51
2021/05/03 06:52:51;;;;;;;1.90;0.50;;;20.20;42.40;;;;;;5037135;28;20033;-48
2021/05/03 06:55:16;;;;;;;1.77;0.70;;;20.20;42.40;;;;;;5036028;28;20442;-51
2021/05/03 06:57:43;;;;;;;0.50;0.50;;;20.20;42.40;;;;;;5036225;28;20036;-49
2021/05/03 07:00:11;;;;;;;1.80;0.90;;;20.20;42.40;;;;;;5018492;28;20111;-48
2021/05/03 07:02:37;;;;;;;1.52;1.00;;;20.20;42.30;;;;;;5036194;28;20029;-46
2021/05/03 07:05:03;;;;;;;2.72;0.80;;;20.20;42.30;;;;;;5036896;28;20441;-49
2021/05/03 07:07:28;;;;;;;2.22;0.60;;;20.20;42.40;;;;;;5036946;28;20108;-51
2021/05/03 07:09:54;;;;;;;6.32;0.73;;;20.20;42.40;;;;;;5036874;28;20381;-52
2021/05/03 07:12:22;;;;;;;4.70;0.65;;;20.20;42.40;;;;;;5036284;28;20029;-54
2021/05/03 07:14:48;;;;;;;2.08;0.70;;;20.20;42.40;;;;;;5036541;28;20020;-50
2021/05/03 07:17:15;;;;;;;0.95;0.43;;;20.20;42.40;;;;;;5036716;28;20028;-54
2021/05/03 07:19:41;;;;;;;1.88;0.90;;;20.30;42.40;;;;;;5036511;28;20025;-49
2021/05/03 07:22:09;;;;;;;2.83;0.70;;;20.30;42.40;;;;;;5018625;28;20452;-52
2021/05/03 07:24:39;;;;;;;3.42;0.90;;;20.30;42.50;;;;;;5036469;28;20118;-50
2021/05/03 07:27:06;;;;;;;0.70;0.57;;;20.30;42.60;;;;;;5036134;28;20467;-53
2021/05/03 07:29:32;;;;;;;2.47;0.70;;;20.30;42.50;;;;;;5036434;28;20432;-56
2021/05/03 07:31:58;;;;;;;1.48;0.80;;;20.30;42.40;;;;;;5036481;28;20036;-54
2021/05/03 07:34:23;;;;;;;0.77;0.52;;;20.30;42.30;;;;;;5035848;28;20061;-55
2021/05/03 07:36:49;;;;;;;0.80;0.55;;;20.40;42.40;;;;;;5035783;28;20419;-56
2021/05/03 07:39:14;;;;;;;2.63;0.70;;;20.40;42.30;;;;;;5036089;28;20017;-50
2021/05/03 07:41:41;;;;;;;1.00;0.52;;;20.40;42.20;;;;;;5035941;28;20044;-54
2021/05/03 07:44:07;;;;;;;2.88;0.80;;;20.40;42.20;;;;;;5036101;28;20025;-51
2021/05/03 07:46:34;;;;;;;0.98;0.70;;;20.40;42.10;;;;;;5036025;28;20018;-54
2021/05/03 07:49:01;;;;;;;0.90;0.70;;;20.50;42.10;;;;;;5035953;28;20025;-54
2021/05/03 07:51:27;;;;;;;1.20;0.82;;;20.40;42.00;;;;;;5036001;28;20029;-56
2021/05/03 07:53:53;;;;;;;2.10;0.80;;;20.50;41.90;;;;;;5036159;28;20013;-52
2021/05/03 07:56:20;;;;;;;1.42;0.90;;;20.50;41.90;;;;;;5018380;28;20413;-55
2021/05/03 07:58:47;;;;;;;1.50;0.88;;;20.50;41.90;;;;;;5035553;28;20021;-54
2021/05/03 08:01:13;;;;;;;0.95;0.45;;;20.50;41.80;;;;;;5035632;28;20029;-50
2021/05/03 08:03:40;;;;;;;4.28;0.95;;;20.50;41.70;;;;;;5035619;28;20021;-52
2021/05/03 08:06:09;;;;;;;1.38;0.90;;;20.50;41.70;;;;;;5035632;28;20032;-56
2021/05/03 08:08:35;;;;;;;2.13;0.95;;;20.60;41.80;;;;;;5034234;28;20025;-53
2021/05/03 08:11:01;;;;;;;4.85;0.93;;;20.60;41.80;;;;;;5035001;28;20029;-55
2021/05/03 08:13:28;;;;;;;3.53;1.00;;;20.60;41.90;;;;;;5035661;28;20100;-54
2021/05/03 08:16:00;;;;;;;2.42;0.90;;;20.60;42.00;;;;;;5035320;28;20017;-50
2021/05/03 08:18:26;;;;;;;3.22;0.90;;;20.70;42.10;;;;;;5034960;28;20083;-53
2021/05/03 08:20:51;;;;;;;3.20;0.77;;;20.70;42.10;;;;;;5035127;28;20037;-55
2021/05/03 08:23:20;;;;;;;5.43;1.65;;;20.70;42.10;;;;;;5034738;28;20026;-53
2021/05/03 08:25:48;;;;;;;4.93;0.80;;;20.80;42.10;;;;;;5035599;28;20028;-52
2021/05/03 08:28:14;;;;;;;3.08;0.80;;;20.80;42.10;;;;;;5035172;28;20395;-57
2021/05/03 08:30:40;;;;;;;2.05;0.80;;;20.80;42.20;;;;;;5034949;28;20441;-56
2021/05/03 08:33:05;;;;;;;10.73;1.10;;;20.90;42.20;;;;;;5034643;28;20140;-53
2021/05/03 08:35:31;;;;;;;4.88;0.93;;;20.90;42.20;;;;;;5035230;28;20064;-54
2021/05/03 08:37:57;;;;;;;4.70;1.45;;;20.90;42.20;;;;;;5034778;28;20356;-55
2021/05/03 08:40:22;;;;;;;1.48;0.90;;;21.00;42.30;;;;;;5034613;28;20045;-52
2021/05/03 08:42:48;;;;;;;6.40;1.10;;;21.00;42.30;;;;;;5034992;28;20349;-52
2021/05/03 08:45:14;;;;;;;2.40;1.10;;;21.00;42.10;;;;;;5034961;28;20037;-51
2021/05/03 08:47:42;;;;;;;1.33;0.90;;;21.00;42.00;;;;;;5034097;28;20017;-57
2021/05/03 08:52:48;;;;;;;6.28;1.27;;;21.00;41.80;;;;;;5035385;28;20441;-55
2021/05/03 08:55:14;;;;;;;4.35;1.40;;;21.10;41.80;;;;;;5034563;28;20475;-55
2021/05/03 08:57:40;;;;;;;5.05;1.13;;;21.10;41.70;;;;;;5033395;28;20029;-54
2021/05/03 09:00:15;;;;;;;7.68;1.77;;;21.10;41.70;;;;;;5034284;28;20025;-56
2021/05/03 09:02:44;;;;;;;11.07;1.45;;;21.10;41.80;;;;;;5035058;28;20083;-53
2021/05/03 09:05:10;;;;;;;9.63;1.50;;;21.20;41.80;;;;;;5034732;28;20025;-53
2021/05/03 09:07:44;;;;;;;8.68;1.30;;;21.20;41.90;;;;;;5034592;28;20022;-52
2021/05/03 09:10:14;;;;;;;4.70;1.20;;;21.20;41.90;;;;;;5034654;28;20097;-54
2021/05/03 09:12:40;;;;;;;7.50;0.90;;;21.20;41.80;;;;;;5034109;28;20506;-55
2021/05/03 09:15:06;;;;;;;3.00;1.13;;;21.20;41.80;;;;;;5035026;28;20029;-56
2021/05/03 09:17:43;;;;;;;4.03;1.40;;;21.30;41.90;;;;;;5034721;28;20032;-55
2021/05/03 09:20:14;;;;;;;4.85;1.48;;;21.30;41.90;;;;;;5034300;28;20091;-53
2021/05/03 09:22:51;;;;;;;7.32;1.10;;;21.30;41.90;;;;;;5034090;28;20087;-51
2021/05/03 09:25:32;;;;;;;6.30;1.10;;;21.30;41.80;;;;;;5034363;28;20036;-49
2021/05/03 09:28:02;;;;;;;3.25;1.40;;;21.40;41.90;;;;;;5034551;28;20028;-47
2021/05/03 09:30:37;;;;;;;3.28;1.15;;;21.40;41.90;;;;;;5034223;28;20430;-49
2021/05/03 09:33:13;;;;;;;7.07;1.05;;;21.40;41.80;;;;;;5017330;28;20325;-48
2021/05/03 09:35:59;;;;;;;3.05;1.05;;;21.40;41.80;;;;;;5033949;28;20444;-48
2021/05/03 09:38:41;;;;;;;3.30;1.00;;;21.40;41.80;;;;;;5034777;28;20328;-50
2021/05/03 09:41:13;;;;;;;4.93;0.93;;;21.40;41.80;;;;;;5034540;28;20069;-54
2021/05/03 09:43:40;;;;;;;2.90;1.02;;;21.40;41.80;;;;;;5034371;28;20018;-48
2021/05/03 09:46:29;;;;;;;4.72;1.10;;;21.50;41.80;;;;;;5034459;28;20042;-50
2021/05/03 09:48:56;;;;;;;3.97;1.27;;;21.50;41.80;;;;;;5021357;28;20441;-50
2021/05/03 09:51:41;;;;;;;1.60;0.85;;;21.50;41.80;;;;;;5034679;28;20195;-55
2021/05/03 09:54:09;;;;;;;3.05;1.20;;;21.50;41.80;;;;;;5034458;28;20029;-51
2021/05/03 09:56:51;;;;;;;1.88;1.10;;;21.50;41.80;;;;;;5034058;28;20100;-48
2021/05/03 09:59:37;;;;;;;6.03;1.38;;;21.60;41.80;;;;;;5035320;28;20025;-52
2021/05/03 10:02:06;;;;;;;2.15;1.10;;;21.60;41.80;;;;;;5038074;28;20355;-50
2021/05/03 10:04:33;;;;;;;5.00;1.45;;;21.60;41.80;;;;;;5037887;28;20033;-51
2021/05/03 10:06:59;;;;;;;3.55;1.10;;;21.60;41.80;;;;;;5037633;28;20107;-50
2021/05/03 10:09:26;;;;;;;2.10;1.13;;;21.60;41.90;;;;;;5037663;28;20095;-51
2021/05/03 10:11:52;;;;;;;1.88;1.25;;;21.60;41.80;;;;;;5037884;28;20167;-51
2021/05/03 10:14:19;;;;;;;5.13;1.58;;;21.60;41.60;;;;;;5037988;28;20029;-50
2021/05/03 10:16:47;;;;;;;1.63;1.10;;;21.60;41.60;;;;;;5037809;28;20022;-50
2021/05/03 10:19:18;;;;;;;2.92;1.20;;;21.70;41.60;;;;;;5037369;28;20022;-49
2021/05/03 10:21:44;;;;;;;2.78;1.20;;;21.60;41.60;;;;;;5037363;28;20045;-49
2021/05/03 10:24:12;;;;;;;1.50;0.80;;;21.60;41.60;;;;;;5037600;28;20087;-48
2021/05/03 10:26:37;;;;;;;2.15;1.00;;;21.70;42.40;;;;;;5037536;28;20017;-52
2021/05/03 10:29:03;;;;;;;2.78;0.90;;;21.70;41.80;;;;;;5037445;28;20351;-47
2021/05/03 10:31:56;;;;;;;3.80;0.90;;;21.70;41.80;;;;;;5037604;28;20033;-53
2021/05/03 10:34:38;;;;;;;1.63;0.82;;;21.70;41.90;;;;;;5037072;28;20080;-48
2021/05/03 10:37:24;;;;;;;2.55;1.00;;;21.70;41.90;;;;;;5037013;28;20025;-50
2021/05/03 10:39:49;;;;;;;3.10;1.00;;;21.70;41.90;;;;;;5036784;28;20033;-47
2021/05/03 10:42:15;;;;;;;2.65;0.90;;;21.70;41.90;;;;;;5037170;28;20034;-48
2021/05/03 10:45:18;;;;;;;3.13;1.08;;;21.70;41.90;;;;;;5037567;28;20030;-51
2021/05/03 10:50:31;;;;;;;2.05;1.05;;;21.70;41.90;;;;;;5037264;28;20029;-54
2021/05/03 10:53:25;;;;;;;8.48;1.00;;;21.70;41.90;;;;;;5036878;28;20036;-50
2021/05/03 10:55:56;;;;;;;3.63;1.10;;;21.80;42.10;;;;;;5037136;28;20444;-52
2021/05/03 10:58:23;;;;;;;5.95;1.60;;;21.70;42.10;;;;;;5036780;28;20033;-48
2021/05/03 11:01:01;;;;;;;1.13;0.82;;;21.70;42.10;;;;;;5036845;28;20022;-48
2021/05/03 11:03:54;;;;;;;2.80;1.17;;;21.70;42.10;;;;;;5036904;28;20029;-52
2021/05/03 11:06:44;;;;;;;3.80;1.20;;;21.70;42.00;;;;;;5036936;28;20371;-51
2021/05/03 11:11:53;;;;;;;3.97;1.20;;;21.80;41.90;;;;;;5036027;28;20063;-50
2021/05/03 11:14:21;;;;;;;2.88;1.15;;;21.80;42.00;;;;;;5036860;28;20021;-49
2021/05/03 11:16:50;;;;;;;3.42;1.13;;;21.80;41.90;;;;;;5036240;28;20021;-54
2021/05/03 11:23:04;;;;;;;4.88;1.25;;;21.80;41.80;;;;;;5036479;28;20042;-51
2021/05/03 11:25:34;;;;;;;3.42;1.30;;;21.80;41.60;;;;;;5036358;28;20025;-57
2021/05/03 11:30:39;;;;;;;4.20;1.00;;;21.80;41.60;;;;;;5036229;28;20041;-53
2021/05/03 11:33:22;;;;;;;3.78;1.60;;;21.90;41.70;;;;;;5036260;28;20021;-50
2021/05/03 11:36:00;;;;;;;2.80;1.27;;;21.80;41.50;;;;;;5036574;28;20397;-50
2021/05/03 11:46:13;;;;;;;1.63;1.52;;;21.90;41.50;;;;;;5035791;28;20029;-49
2021/05/03 11:48:39;;;;;;;2.88;1.50;;;21.90;41.40;;;;;;5036461;28;20053;-50
2021/05/03 11:51:10;;;;;;;1.60;1.00;;;21.80;41.20;;;;;;5036690;28;20076;-51
2021/05/03 11:53:43;;;;;;;2.53;1.10;;;21.90;41.20;;;;;;5036026;28;20064;-53
2021/05/03 11:56:27;;;;;;;1.27;0.95;;;21.90;41.20;;;;;;5035746;28;20448;-50
2021/05/03 11:58:59;;;;;;;;;;;21.80;40.90;;;;;;5036395;28;20033;-53
2021/05/03 12:01:30;;;;;;;3.17;1.30;;;21.90;40.80;;;;;;5035561;28;19967;-50
2021/05/03 12:03:58;;;;;;;2.15;1.38;;;21.90;40.90;;;;;;5035843;28;20167;-50
2021/05/03 12:06:34;;;;;;;2.92;1.23;;;21.80;40.80;;;;;;5035571;28;20022;-53
2021/05/03 12:09:12;;;;;;;1.42;1.17;;;21.90;40.80;;;;;;5035977;28;20026;-47
2021/05/03 12:11:39;;;;;;;1.48;1.10;;;21.80;40.70;;;;;;5035436;28;20025;-54
2021/05/03 12:14:06;;;;;;;3.30;1.17;;;21.80;40.60;;;;;;5035632;28;20026;-52
2021/05/03 12:16:40;;;;;;;2.50;1.10;;;21.90;40.60;;;;;;5035522;28;20393;-56
2021/05/03 12:19:25;;;;;;;3.30;1.15;;;21.90;40.60;;;;;;5035748;28;20025;-50
2021/05/03 12:22:00;;;;;;;1.58;0.88;;;21.90;40.60;;;;;;5035181;28;20443;-53
2021/05/03 12:24:32;;;;;;;1.30;1.20;;;21.90;40.60;;;;;;5035104;28;20340;-51
2021/05/03 12:26:59;;;;;;;2.13;1.27;;;21.90;40.50;;;;;;5035384;28;20048;-55
2021/05/03 12:29:27;;;;;;;1.50;1.25;;;21.90;40.50;;;;;;5035256;28;20086;-52
2021/05/03 12:31:53;;;;;;;1.95;1.20;;;21.90;40.30;;;;;;5035019;28;20024;-54
2021/05/03 12:34:24;;;;;;;1.20;1.10;;;21.90;40.40;;;;;;5034963;28;20049;-52
2021/05/03 12:37:10;;;;;;;1.45;1.05;;;21.80;40.40;;;;;;5035315;28;20029;-53
2021/05/03 12:39:54;;;;;;;2.15;1.15;;;21.90;40.50;;;;;;5035147;28;20120;-53
2021/05/03 12:42:19;;;;;;;3.63;1.20;;;21.80;40.50;;;;;;5035030;28;20033;-54
2021/05/03 12:44:51;;;;;;;1.40;0.98;;;21.90;40.50;;;;;;5035068;28;20021;-49
2021/05/03 12:47:49;;;;;;;1.10;1.00;;;21.90;40.60;;;;;;5034766;28;20455;-47
2021/05/03 12:50:26;;;;;;;3.72;1.27;;;21.90;40.60;;;;;;5034889;28;20463;-52
2021/05/03 13:04:03;;;;;;;4.38;1.27;;;21.80;40.70;;;;;;5034167;28;20030;-52
2021/05/03 13:07:42;;;;;;;4.55;1.38;;;21.80;40.80;;;;;;5034140;28;20017;-52
2021/05/03 13:09:44;;;;;;;1.83;1.52;;;21.80;40.80;;;;;;5017378;28;20087;-52
2021/05/03 13:29:22;;;;;;;6.45;2.22;;;21.80;41.20;;;;;;5033958;28;20021;-49
2021/05/03 13:31:48;;;;;;;4.75;1.92;;;21.80;41.50;;;;;;5034537;28;20040;-50
2021/05/03 13:34:16;;;;;;;2.10;1.60;;;21.80;41.80;;;;;;5034835;28;20054;-46
2021/05/03 13:36:44;;;;;;;5.47;1.77;;;21.80;42.00;;;;;;5038370;28;20322;-52
2021/05/03 13:39:11;;;;;;;2.05;1.42;;;21.80;41.90;;;;;;5038968;28;20429;-53
2021/05/03 13:41:39;;;;;;;2.78;1.70;;;21.80;42.60;;;;;;5038426;28;20030;-52
2021/05/03 13:44:06;;;;;;;1.40;1.20;;;21.80;41.90;;;;;;5038076;28;20057;-49
2021/05/03 13:46:33;;;;;;;1.15;1.00;;;21.80;42.10;;;;;;5038022;28;20498;-49
2021/05/03 13:48:59;;;;;;;3.67;1.60;;;21.80;42.20;;;;;;5038276;28;20029;-49
2021/05/03 13:51:27;;;;;;;2.50;1.20;;;21.80;42.20;;;;;;5038319;28;20072;-47
2021/05/03 13:53:53;;;;;;;3.78;1.50;;;21.80;42.20;;;;;;5038336;28;20079;-56
2021/05/03 13:56:19;;;;;;;4.45;1.70;;;21.80;42.00;;;;;;5038249;28;20062;-51
2021/05/03 13:58:45;;;;;;;2.67;1.70;;;21.80;41.90;;;;;;5037945;28;20033;-49